Time;durP1;ratioP1;P1;durP2;ratioP2;P2;SDS_P1;SDS_P2;PMS_P1;PMS_P2;Temp;Humidity;BMP_temperature;BMP_pressure;BME280_temperature;BME280_humidity;BME280_pressure;Samples;Min_cycle;Max_cycle;Signal;HPM_P1;HPM_P2
2024/04/09 00:01:17;;;;;;;2.92;1.48;;;;;;;;;;5439502;26;21209;-72
2024/04/09 00:03:43;;;;;;;8.80;2.63;;;;;;;;;;5467197;26;20051;-71
2024/04/09 00:06:15;;;;;;;2.63;2.30;;;;;;;;;;5472182;26;20074;-72
2024/04/09 00:08:45;;;;;;;4.78;2.10;;;;;;;;;;5467439;26;19990;-72
2024/04/09 00:11:21;;;;;;;6.88;2.10;;;;;;;;;;5469795;26;20016;-72
2024/04/09 00:13:47;;;;;;;3.80;1.58;;;;;;;;;;5460895;26;20251;-72
2024/04/09 00:16:13;;;;;;;3.17;1.77;;;;;;;;;;5448455;26;20567;-71
2024/04/09 00:18:39;;;;;;;6.63;2.20;;;;;;;;;;5476920;26;19998;-71
2024/04/09 00:21:07;;;;;;;2.25;2.03;;;;;;;;;;5442557;26;20013;-71
2024/04/09 00:23:35;;;;;;;4.68;1.80;;;;;;;;;;5477359;26;19998;-71
2024/04/09 00:26:02;;;;;;;2.10;1.90;;;;;;;;;;5471430;26;20009;-72
2024/04/09 00:28:28;;;;;;;11.20;2.03;;;;;;;;;;5476389;26;20051;-71
2024/04/09 00:30:57;;;;;;;4.18;1.80;;;;;;;;;;5475256;26;19990;-72
2024/04/09 00:33:24;;;;;;;2.22;2.03;;;;;;;;;;5477194;26;20014;-71
2024/04/09 00:35:51;;;;;;;6.50;2.22;;;;;;;;;;5472875;26;20017;-71
2024/04/09 00:38:19;;;;;;;1.83;1.65;;;;;;;;;;5441238;26;20013;-71
2024/04/09 00:40:45;;;;;;;6.07;2.20;;;;;;;;;;5466607;26;20042;-71
2024/04/09 00:43:12;;;;;;;2.83;2.15;;;;;;;;;;5472815;26;20002;-71
2024/04/09 00:45:39;;;;;;;10.60;2.15;;;;;;;;;;5462911;26;20403;-70
2024/04/09 00:48:06;;;;;;;10.77;2.75;;;;;;;;;;5463221;26;19990;-71
2024/04/09 00:50:33;;;;;;;5.97;2.13;;;;;;;;;;5470776;26;20530;-71
2024/04/09 00:53:00;;;;;;;2.83;2.30;;;;;;;;;;5471341;26;20008;-73
2024/04/09 00:55:26;;;;;;;3.70;2.38;;;;;;;;;;5474781;26;19998;-72
2024/04/09 00:57:53;;;;;;;2.50;2.22;;;;;;;;;;5472878;26;20008;-72
2024/04/09 01:00:19;;;;;;;6.82;2.92;;;;;;;;;;5437836;26;19998;-71
2024/04/09 01:02:49;;;;;;;2.95;2.67;;;;;;;;;;5471615;26;20006;-71
2024/04/09 01:05:15;;;;;;;5.15;3.05;;;;;;;;;;5470735;26;20010;-71
2024/04/09 01:07:42;;;;;;;4.43;2.65;;;;;;;;;;5473114;26;20001;-71
2024/04/09 01:10:09;;;;;;;2.17;1.95;;;;;;;;;;5456803;26;20006;-71
2024/04/09 01:12:35;;;;;;;2.03;1.90;;;;;;;;;;5472418;26;20103;-71
2024/04/09 01:15:01;;;;;;;4.65;2.40;;;;;;;;;;5467756;26;20088;-71
2024/04/09 01:17:28;;;;;;;6.97;2.10;;;;;;;;;;5473652;26;20017;-72
2024/04/09 01:19:55;;;;;;;4.25;2.15;;;;;;;;;;5474627;26;20005;-72
2024/04/09 01:22:21;;;;;;;2.17;2.00;;;;;;;;;;5471211;26;20395;-72
2024/04/09 01:24:50;;;;;;;2.28;2.08;;;;;;;;;;5472548;26;19990;-72
2024/04/09 01:27:16;;;;;;;4.20;1.98;;;;;;;;;;5471110;26;20013;-71
2024/04/09 01:29:43;;;;;;;5.78;2.50;;;;;;;;;;5471796;26;20473;-72
2024/04/09 01:32:09;;;;;;;3.58;1.80;;;;;;;;;;5471712;26;19991;-72
2024/04/09 01:34:35;;;;;;;1.92;1.83;;;;;;;;;;5475354;26;20055;-71
2024/04/09 01:37:02;;;;;;;1.85;1.52;;;;;;;;;;5474285;26;20033;-71
2024/04/09 01:39:28;;;;;;;2.65;1.83;;;;;;;;;;5472001;26;20434;-71
2024/04/09 01:41:55;;;;;;;1.35;1.25;;;;;;;;;;5472863;26;20066;-64
2024/04/09 01:44:21;;;;;;;1.52;1.40;;;;;;;;;;5468866;26;20030;-68
2024/04/09 01:46:48;;;;;;;1.40;1.30;;;;;;;;;;5460907;26;20427;-64
2024/04/09 01:49:20;;;;;;;1.17;1.17;;;;;;;;;;5434336;26;19999;-65
2024/04/09 01:51:46;;;;;;;2.17;1.30;;;;;;;;;;5437992;26;19998;-69
2024/04/09 01:54:12;;;;;;;2.53;1.95;;;;;;;;;;5473327;26;19998;-65
2024/04/09 01:56:38;;;;;;;9.07;1.60;;;;;;;;;;5470327;26;19994;-64
2024/04/09 01:59:05;;;;;;;1.10;1.10;;;;;;;;;;5472325;26;20437;-66
2024/04/09 02:01:33;;;;;;;1.60;1.42;;;;;;;;;;5460041;26;20455;-64
2024/04/09 02:04:01;;;;;;;1.13;1.13;;;;;;;;;;5444859;26;20034;-64
2024/04/09 02:06:28;;;;;;;3.97;1.55;;;;;;;;;;5476808;26;20054;-67
2024/04/09 02:08:54;;;;;;;1.30;1.30;;;;;;;;;;5438860;26;20013;-64
2024/04/09 02:11:22;;;;;;;1.25;1.25;;;;;;;;;;5475188;26;20002;-64
2024/04/09 02:13:48;;;;;;;1.60;1.50;;;;;;;;;;5439163;26;20013;-64
2024/04/09 02:16:16;;;;;;;1.38;1.30;;;;;;;;;;5467066;26;19994;-64
2024/04/09 02:18:42;;;;;;;1.50;1.40;;;;;;;;;;5474472;26;20350;-64
2024/04/09 02:21:09;;;;;;;5.88;1.50;;;;;;;;;;5441377;26;20003;-64
2024/04/09 02:23:35;;;;;;;1.42;1.38;;;;;;;;;;5472873;26;20468;-63
2024/04/09 02:26:02;;;;;;;1.15;1.15;;;;;;;;;;5466372;26;19998;-66
2024/04/09 02:28:28;;;;;;;1.00;1.00;;;;;;;;;;5475235;26;20006;-64
2024/04/09 02:30:55;;;;;;;1.40;1.40;;;;;;;;;;5472812;26;20079;-63
2024/04/09 02:33:21;;;;;;;1.63;1.42;;;;;;;;;;5436393;26;19994;-64
2024/04/09 02:35:54;;;;;;;1.30;1.30;;;;;;;;;;5469054;26;20006;-65
2024/04/09 02:38:20;;;;;;;1.20;1.20;;;;;;;;;;5470653;26;20352;-64
2024/04/09 02:40:47;;;;;;;1.50;1.40;;;;;;;;;;5432251;26;20043;-64
2024/04/09 02:43:13;;;;;;;1.25;1.25;;;;;;;;;;5465270;26;20006;-64
2024/04/09 02:45:39;;;;;;;1.20;1.20;;;;;;;;;;5474151;26;20055;-65
2024/04/09 02:48:08;;;;;;;2.00;1.35;;;;;;;;;;5470548;26;20021;-65
2024/04/09 02:50:34;;;;;;;1.42;1.30;;;;;;;;;;5469045;26;20053;-64
2024/04/09 02:53:00;;;;;;;1.10;1.10;;;;;;;;;;5471274;26;20025;-65
2024/04/09 02:55:26;;;;;;;1.08;1.08;;;;;;;;;;5475243;26;20326;-64
2024/04/09 02:57:52;;;;;;;3.03;1.60;;;;;;;;;;5472533;26;20002;-65
2024/04/09 03:00:19;;;;;;;1.92;1.27;;;;;;;;;;5464782;26;20348;-65
2024/04/09 03:02:52;;;;;;;1.20;1.20;;;;;;;;;;5435154;26;20051;-64
2024/04/09 03:05:20;;;;;;;1.65;1.55;;;;;;;;;;5463258;26;20002;-65
2024/04/09 03:07:46;;;;;;;1.02;1.02;;;;;;;;;;5471643;26;20002;-64
2024/04/09 03:10:13;;;;;;;1.50;1.40;;;;;;;;;;5460379;26;19998;-67
2024/04/09 03:12:42;;;;;;;1.33;1.33;;;;;;;;;;5474028;26;20024;-65
2024/04/09 03:15:09;;;;;;;1.00;1.00;;;;;;;;;;5468600;26;19990;-67
2024/04/09 03:17:35;;;;;;;3.03;1.17;;;;;;;;;;5475598;26;20581;-66
2024/04/09 03:20:04;;;;;;;4.38;1.63;;;;;;;;;;5471626;26;19994;-65
2024/04/09 03:22:30;;;;;;;3.20;1.60;;;;;;;;;;5470342;26;19994;-64
2024/04/09 03:24:56;;;;;;;1.90;1.80;;;;;;;;;;5441112;26;20012;-66
2024/04/09 03:27:22;;;;;;;1.27;1.27;;;;;;;;;;5467558;26;20453;-66
2024/04/09 03:29:48;;;;;;;1.10;1.10;;;;;;;;;;5469252;26;20472;-65
2024/04/09 03:32:15;;;;;;;1.63;1.52;;;;;;;;;;5466995;26;20002;-68
2024/04/09 03:34:41;;;;;;;1.38;1.33;;;;;;;;;;5473341;26;20449;-66
2024/04/09 03:37:07;;;;;;;1.80;1.67;;;;;;;;;;5474215;26;19998;-66
2024/04/09 03:39:34;;;;;;;3.30;2.03;;;;;;;;;;5470983;26;20509;-67
2024/04/09 03:42:00;;;;;;;1.95;1.75;;;;;;;;;;5476715;26;20059;-65
2024/04/09 03:44:26;;;;;;;2.60;2.00;;;;;;;;;;5475617;26;20014;-66
2024/04/09 03:46:52;;;;;;;1.73;1.63;;;;;;;;;;5467191;26;20021;-65
2024/04/09 03:49:19;;;;;;;1.83;1.58;;;;;;;;;;5476037;26;20416;-65
2024/04/09 03:51:45;;;;;;;1.58;1.38;;;;;;;;;;5466649;26;20968;-67
2024/04/09 03:54:11;;;;;;;2.28;1.65;;;;;;;;;;5481101;26;20551;-66
2024/04/09 03:56:37;;;;;;;4.00;2.05;;;;;;;;;;5467283;26;20009;-66
2024/04/09 03:59:04;;;;;;;3.20;1.98;;;;;;;;;;5439306;26;20254;-66
2024/04/09 04:01:30;;;;;;;3.15;2.05;;;;;;;;;;5467140;26;19998;-66
2024/04/09 04:03:56;;;;;;;1.17;1.17;;;;;;;;;;5472739;26;19998;-66
2024/04/09 04:06:22;;;;;;;1.75;1.65;;;;;;;;;;5469493;26;20465;-65
2024/04/09 04:08:49;;;;;;;1.60;1.50;;;;;;;;;;5477801;26;20062;-65
2024/04/09 04:11:15;;;;;;;10.43;2.13;;;;;;;;;;5480682;26;20455;-66
2024/04/09 04:13:41;;;;;;;7.03;2.63;;;;;;;;;;5473272;26;20505;-66
2024/04/09 04:16:09;;;;;;;2.40;1.90;;;;;;;;;;5466188;26;20034;-66
2024/04/09 04:18:39;;;;;;;1.77;1.67;;;;;;;;;;5466343;26;20017;-67
2024/04/09 04:21:06;;;;;;;2.92;1.85;;;;;;;;;;5467436;26;20349;-66
2024/04/09 04:23:32;;;;;;;3.83;1.83;;;;;;;;;;5445514;26;19994;-66
2024/04/09 04:26:01;;;;;;;3.63;1.48;;;;;;;;;;5473566;26;20044;-66
2024/04/09 04:28:28;;;;;;;1.52;1.45;;;;;;;;;;5476047;26;20017;-66
2024/04/09 04:30:54;;;;;;;6.85;1.63;;;;;;;;;;5463336;26;20437;-66
2024/04/09 04:33:20;;;;;;;4.38;1.70;;;;;;;;;;5442039;26;20177;-65
2024/04/09 04:35:46;;;;;;;4.38;2.17;;;;;;;;;;5489556;26;20038;-67
2024/04/09 04:38:12;;;;;;;5.10;1.98;;;;;;;;;;5448271;26;20379;-66
2024/04/09 04:40:38;;;;;;;6.13;1.50;;;;;;;;;;5468440;26;20342;-65
2024/04/09 04:43:04;;;;;;;2.10;1.50;;;;;;;;;;5472676;26;20009;-67
2024/04/09 04:45:31;;;;;;;3.08;1.60;;;;;;;;;;5471879;26;20080;-69
2024/04/09 04:48:00;;;;;;;1.35;1.35;;;;;;;;;;5475123;26;20018;-66
2024/04/09 04:50:26;;;;;;;3.40;1.85;;;;;;;;;;5460185;26;20002;-66
2024/04/09 04:52:53;;;;;;;2.33;2.22;;;;;;;;;;5470098;26;20006;-66
2024/04/09 04:55:19;;;;;;;4.68;1.67;;;;;;;;;;5477037;26;20006;-65
2024/04/09 04:57:45;;;;;;;2.05;1.88;;;;;;;;;;5474191;26;20074;-66
2024/04/09 05:00:11;;;;;;;4.22;2.00;;;;;;;;;;5476379;26;20474;-65
2024/04/09 05:02:38;;;;;;;2.70;2.10;;;;;;;;;;5475779;26;20002;-66
2024/04/09 05:05:04;;;;;;;2.47;2.28;;;;;;;;;;5473924;26;20421;-66
2024/04/09 05:07:31;;;;;;;1.40;1.30;;;;;;;;;;5477115;26;19998;-66
2024/04/09 05:09:58;;;;;;;8.30;2.38;;;;;;;;;;5480719;26;20097;-67
2024/04/09 05:12:24;;;;;;;2.35;1.50;;;;;;;;;;5477088;26;20014;-66
2024/04/09 05:14:50;;;;;;;7.35;1.88;;;;;;;;;;5449338;26;20006;-67
2024/04/09 05:17:17;;;;;;;3.03;1.88;;;;;;;;;;5468992;26;20026;-65
2024/04/09 05:19:43;;;;;;;1.85;1.70;;;;;;;;;;5480705;26;20002;-67
2024/04/09 05:22:11;;;;;;;3.58;1.50;;;;;;;;;;5479987;26;20006;-66
2024/04/09 05:24:39;;;;;;;2.25;1.95;;;;;;;;;;5447816;26;20010;-66
2024/04/09 05:27:05;;;;;;;5.60;1.90;;;;;;;;;;5435018;26;20001;-66
2024/04/09 05:29:32;;;;;;;1.40;1.30;;;;;;;;;;5479753;26;20453;-66
2024/04/09 05:31:58;;;;;;;2.53;1.40;;;;;;;;;;5474332;26;20498;-67
2024/04/09 05:34:24;;;;;;;1.13;1.13;;;;;;;;;;5474906;26;20021;-65
2024/04/09 05:36:50;;;;;;;6.05;2.03;;;;;;;;;;5442801;26;20013;-66
2024/04/09 05:39:17;;;;;;;3.08;1.30;;;;;;;;;;5473991;26;20002;-66
2024/04/09 05:41:43;;;;;;;1.80;1.33;;;;;;;;;;5476512;26;20035;-66
2024/04/09 05:44:09;;;;;;;1.85;1.75;;;;;;;;;;5482603;26;20001;-66
2024/04/09 05:46:36;;;;;;;2.72;1.63;;;;;;;;;;5460959;26;20752;-66
2024/04/09 05:49:03;;;;;;;4.25;2.47;;;;;;;;;;5443518;26;20552;-66
2024/04/09 05:51:29;;;;;;;2.33;2.05;;;;;;;;;;5433316;26;20014;-66
2024/04/09 05:53:55;;;;;;;1.80;1.70;;;;;;;;;;5475398;26;20013;-66
2024/04/09 05:56:21;;;;;;;2.20;1.95;;;;;;;;;;5436925;26;19994;-68
2024/04/09 05:58:48;;;;;;;5.25;1.50;;;;;;;;;;5477563;26;20316;-66
2024/04/09 06:01:14;;;;;;;4.72;1.92;;;;;;;;;;5467617;26;19994;-68
2024/04/09 06:03:41;;;;;;;3.92;1.73;;;;;;;;;;5473239;26;20014;-66
2024/04/09 06:06:08;;;;;;;4.22;1.75;;;;;;;;;;5471884;26;20621;-69
2024/04/09 06:08:37;;;;;;;2.42;1.75;;;;;;;;;;5447479;26;20012;-68
2024/04/09 06:11:04;;;;;;;3.30;1.90;;;;;;;;;;5485993;26;20859;-68
2024/04/09 06:13:30;;;;;;;2.70;2.22;;;;;;;;;;5466514;26;20033;-67
2024/04/09 06:15:57;;;;;;;2.65;1.67;;;;;;;;;;5421878;26;20112;-67
2024/04/09 06:18:23;;;;;;;1.10;1.10;;;;;;;;;;5437844;26;20001;-68
2024/04/09 06:20:51;;;;;;;5.10;1.52;;;;;;;;;;5480061;26;20016;-68
2024/04/09 06:23:18;;;;;;;3.47;1.33;;;;;;;;;;5464466;26;20358;-67
2024/04/09 06:25:53;;;;;;;2.63;1.30;;;;;;;;;;5471401;26;20010;-68
2024/04/09 06:28:19;;;;;;;;;;;;;;;;;;5482022;26;20013;-67
2024/04/09 06:30:45;;;;;;;2.38;1.52;;;;;;;;;;5484438;26;19931;-66
2024/04/09 06:33:12;;;;;;;1.63;1.52;;;;;;;;;;5452864;26;20006;-69
2024/04/09 06:35:38;;;;;;;7.70;1.90;;;;;;;;;;5470689;26;20426;-68
2024/04/09 06:38:05;;;;;;;2.50;1.80;;;;;;;;;;5487184;26;20311;-67
2024/04/09 06:40:32;;;;;;;2.08;1.88;;;;;;;;;;5463785;26;19999;-67
2024/04/09 06:42:58;;;;;;;2.25;1.70;;;;;;;;;;5475780;26;20012;-67
2024/04/09 06:45:24;;;;;;;2.15;1.92;;;;;;;;;;5476379;26;20055;-67
2024/04/09 06:47:51;;;;;;;4.45;1.95;;;;;;;;;;5482665;26;20005;-67
2024/04/09 06:50:17;;;;;;;3.38;2.22;;;;;;;;;;5465109;26;19994;-68
2024/04/09 06:52:43;;;;;;;1.60;1.50;;;;;;;;;;5453524;26;20016;-67
2024/04/09 06:55:10;;;;;;;2.75;1.77;;;;;;;;;;5438303;26;20021;-69
2024/04/09 06:57:36;;;;;;;1.60;1.50;;;;;;;;;;5486192;26;19995;-67
2024/04/09 07:00:04;;;;;;;1.98;1.83;;;;;;;;;;5480832;26;19997;-70
2024/04/09 07:02:30;;;;;;;1.55;1.45;;;;;;;;;;5482393;26;20005;-69
2024/04/09 07:04:57;;;;;;;1.52;1.48;;;;;;;;;;5486198;26;20476;-68
2024/04/09 07:07:23;;;;;;;3.95;1.40;;;;;;;;;;5480817;26;19998;-68
2024/04/09 07:09:50;;;;;;;2.38;1.90;;;;;;;;;;5474161;26;20002;-68
2024/04/09 07:12:17;;;;;;;1.45;1.45;;;;;;;;;;5481948;26;20538;-69
2024/04/09 07:14:43;;;;;;;3.15;1.55;;;;;;;;;;5482531;26;21156;-68
2024/04/09 07:17:10;;;;;;;7.07;1.88;;;;;;;;;;5480702;26;19994;-68
2024/04/09 07:19:36;;;;;;;4.53;2.08;;;;;;;;;;5487376;26;20008;-69
2024/04/09 07:22:02;;;;;;;1.67;1.58;;;;;;;;;;5476532;26;20002;-68
2024/04/09 07:24:28;;;;;;;1.27;1.27;;;;;;;;;;5472493;26;19995;-68
2024/04/09 07:26:55;;;;;;;13.50;2.03;;;;;;;;;;5478085;26;20034;-68
2024/04/09 07:29:21;;;;;;;1.60;1.30;;;;;;;;;;5478987;26;20007;-68
2024/04/09 07:31:47;;;;;;;2.70;1.52;;;;;;;;;;5483528;26;19994;-68
2024/04/09 07:34:13;;;;;;;2.00;1.60;;;;;;;;;;5448472;26;20010;-69
2024/04/09 07:36:39;;;;;;;3.25;1.65;;;;;;;;;;5473222;26;20014;-68
2024/04/09 07:39:07;;;;;;;1.20;1.20;;;;;;;;;;5481728;26;20005;-69
2024/04/09 07:41:34;;;;;;;1.10;1.10;;;;;;;;;;5476836;26;19998;-68
2024/04/09 07:44:00;;;;;;;2.53;1.67;;;;;;;;;;5478813;26;20007;-69
2024/04/09 07:46:26;;;;;;;1.27;1.25;;;;;;;;;;5471701;26;20968;-69
2024/04/09 07:48:54;;;;;;;1.60;1.50;;;;;;;;;;5448240;26;20559;-69
2024/04/09 07:51:21;;;;;;;1.70;1.67;;;;;;;;;;5474001;26;19998;-68
2024/04/09 07:53:47;;;;;;;3.75;1.50;;;;;;;;;;5475279;26;20509;-69
2024/04/09 07:56:13;;;;;;;2.75;1.48;;;;;;;;;;5449496;26;19998;-69
2024/04/09 07:58:39;;;;;;;3.95;1.88;;;;;;;;;;5463417;26;20430;-68
2024/04/09 08:01:05;;;;;;;2.58;1.83;;;;;;;;;;5485815;26;20042;-68
2024/04/09 08:03:32;;;;;;;6.30;2.00;;;;;;;;;;5480561;26;20560;-70
2024/04/09 08:05:58;;;;;;;4.82;1.30;;;;;;;;;;5469856;26;20036;-68
2024/04/09 08:08:24;;;;;;;2.55;2.35;;;;;;;;;;5477301;26;20549;-69
2024/04/09 08:10:51;;;;;;;2.08;1.40;;;;;;;;;;5445754;26;20547;-69
2024/04/09 08:13:17;;;;;;;2.15;1.70;;;;;;;;;;5485060;26;19993;-70
2024/04/09 08:15:43;;;;;;;3.83;1.27;;;;;;;;;;5478526;26;20010;-70
2024/04/09 08:18:09;;;;;;;5.68;1.73;;;;;;;;;;5478746;26;19994;-70
2024/04/09 08:20:35;;;;;;;3.63;1.58;;;;;;;;;;5447191;26;20011;-70
2024/04/09 08:23:03;;;;;;;1.20;1.20;;;;;;;;;;5433570;26;20013;-70
2024/04/09 08:25:29;;;;;;;4.80;1.65;;;;;;;;;;5446554;26;19989;-70
2024/04/09 08:27:57;;;;;;;3.20;1.80;;;;;;;;;;5475622;26;20082;-70
2024/04/09 08:30:26;;;;;;;2.03;1.52;;;;;;;;;;5485363;26;20002;-70
2024/04/09 08:32:53;;;;;;;1.30;1.30;;;;;;;;;;5468852;26;20009;-70
2024/04/09 08:35:19;;;;;;;1.60;1.50;;;;;;;;;;5481838;26;20002;-70
2024/04/09 08:37:46;;;;;;;4.43;2.13;;;;;;;;;;5479047;26;20016;-70
2024/04/09 08:40:16;;;;;;;1.50;1.40;;;;;;;;;;5490584;26;20017;-70
2024/04/09 08:42:42;;;;;;;3.13;1.35;;;;;;;;;;5480667;26;20002;-70
2024/04/09 08:45:14;;;;;;;3.03;2.15;;;;;;;;;;5486102;26;19998;-70
2024/04/09 08:47:43;;;;;;;7.63;1.70;;;;;;;;;;5476237;26;20005;-70
2024/04/09 08:50:10;;;;;;;5.13;1.48;;;;;;;;;;5476557;26;20355;-70
2024/04/09 08:52:36;;;;;;;3.17;1.80;;;;;;;;;;5483703;26;20002;-71
2024/04/09 08:55:06;;;;;;;2.03;1.60;;;;;;;;;;5475682;26;19999;-72
2024/04/09 08:57:32;;;;;;;4.93;1.90;;;;;;;;;;5496281;26;20013;-70
2024/04/09 09:00:00;;;;;;;1.20;1.20;;;;;;;;;;5492773;26;20019;-71
2024/04/09 09:02:27;;;;;;;1.92;1.83;;;;;;;;;;5451402;26;20030;-70
2024/04/09 09:04:53;;;;;;;3.50;1.45;;;;;;;;;;5489211;26;19994;-70
2024/04/09 09:07:20;;;;;;;2.42;1.73;;;;;;;;;;5479655;26;20002;-70
2024/04/09 09:09:47;;;;;;;3.25;1.65;;;;;;;;;;5474511;26;20401;-70
2024/04/09 09:12:14;;;;;;;2.33;1.67;;;;;;;;;;5486198;26;20002;-69
2024/04/09 09:14:50;;;;;;;3.30;1.48;;;;;;;;;;5442360;26;20005;-70
2024/04/09 09:17:16;;;;;;;3.80;1.77;;;;;;;;;;5477406;26;20052;-70
2024/04/09 09:19:42;;;;;;;2.38;1.60;;;;;;;;;;5457975;26;20002;-70
2024/04/09 09:22:09;;;;;;;1.92;1.52;;;;;;;;;;5475038;26;19994;-70
2024/04/09 09:24:35;;;;;;;1.58;1.40;;;;;;;;;;5471354;26;20002;-70
2024/04/09 09:27:02;;;;;;;3.83;1.52;;;;;;;;;;5478292;26;20123;-69
2024/04/09 09:29:29;;;;;;;5.72;2.45;;;;;;;;;;5480246;26;20004;-70
2024/04/09 09:31:55;;;;;;;2.28;1.80;;;;;;;;;;5481286;26;20629;-69
2024/04/09 09:34:27;;;;;;;1.58;1.38;;;;;;;;;;5479180;26;20002;-69
2024/04/09 09:36:58;;;;;;;1.38;1.15;;;;;;;;;;5471927;26;20362;-69
2024/04/09 09:39:25;;;;;;;1.95;1.63;;;;;;;;;;5450334;26;20009;-69
2024/04/09 09:41:53;;;;;;;6.65;2.40;;;;;;;;;;5445122;26;20153;-70
2024/04/09 09:44:20;;;;;;;3.45;1.77;;;;;;;;;;5442522;26;20002;-69
2024/04/09 09:46:48;;;;;;;1.77;1.67;;;;;;;;;;5444672;26;20890;-69
2024/04/09 09:49:14;;;;;;;3.75;1.50;;;;;;;;;;5476318;26;20002;-69
2024/04/09 09:51:41;;;;;;;1.88;1.77;;;;;;;;;;5447717;26;19994;-70
2024/04/09 09:54:07;;;;;;;2.28;2.10;;;;;;;;;;5475929;26;20017;-69
2024/04/09 09:56:33;;;;;;;1.70;1.60;;;;;;;;;;5474229;26;20895;-70
2024/04/09 09:59:00;;;;;;;1.20;1.20;;;;;;;;;;5478496;26;20070;-69
2024/04/09 10:01:27;;;;;;;1.67;1.58;;;;;;;;;;5477100;26;20005;-69
2024/04/09 10:03:55;;;;;;;2.30;1.52;;;;;;;;;;5447196;26;19990;-68
2024/04/09 10:06:24;;;;;;;1.40;1.30;;;;;;;;;;5476650;26;19998;-70
2024/04/09 10:08:51;;;;;;;1.75;1.40;;;;;;;;;;5466000;26;20468;-70
2024/04/09 10:11:21;;;;;;;2.17;1.70;;;;;;;;;;5466480;26;20017;-70
2024/04/09 10:13:54;;;;;;;1.40;1.40;;;;;;;;;;5467213;26;20478;-70
2024/04/09 10:16:22;;;;;;;1.48;1.38;;;;;;;;;;5475334;26;19998;-70
2024/04/09 10:18:51;;;;;;;1.63;1.52;;;;;;;;;;5476974;26;19998;-71
2024/04/09 10:21:28;;;;;;;1.70;1.60;;;;;;;;;;5446517;26;20005;-70
2024/04/09 10:23:58;;;;;;;1.55;1.40;;;;;;;;;;5478768;26;20481;-70
2024/04/09 10:26:26;;;;;;;1.63;1.52;;;;;;;;;;5477856;26;19994;-70
2024/04/09 10:29:02;;;;;;;5.55;1.65;;;;;;;;;;5478324;26;20002;-70
2024/04/09 10:31:33;;;;;;;4.25;1.48;;;;;;;;;;5451168;26;20005;-70
2024/04/09 10:34:00;;;;;;;6.05;1.95;;;;;;;;;;5447165;26;20002;-71
2024/04/09 10:36:26;;;;;;;1.55;1.45;;;;;;;;;;5471510;26;20017;-71
2024/04/09 10:38:52;;;;;;;2.22;1.40;;;;;;;;;;5455875;26;20039;-70
2024/04/09 10:41:19;;;;;;;1.50;1.40;;;;;;;;;;5467816;26;20074;-72
2024/04/09 10:43:46;;;;;;;2.55;1.40;;;;;;;;;;5443422;26;20727;-70
2024/04/09 10:46:12;;;;;;;4.95;1.88;;;;;;;;;;5455320;26;20212;-70
2024/04/09 10:48:39;;;;;;;3.22;1.50;;;;;;;;;;5475466;26;20267;-69
2024/04/09 10:51:07;;;;;;;2.83;1.65;;;;;;;;;;5453116;26;19999;-70
2024/04/09 10:53:36;;;;;;;6.03;1.90;;;;;;;;;;5469181;26;19998;-70
2024/04/09 10:56:03;;;;;;;1.65;1.55;;;;;;;;;;5478487;26;20406;-71
2024/04/09 10:58:29;;;;;;;1.98;1.33;;;;;;;;;;5439921;26;20006;-73
2024/04/09 11:00:56;;;;;;;2.70;1.50;;;;;;;;;;5479100;26;19994;-73
2024/04/09 11:03:23;;;;;;;3.55;1.77;;;;;;;;;;5480817;26;20002;-71
2024/04/09 11:05:52;;;;;;;6.00;1.60;;;;;;;;;;5442167;26;19994;-71
2024/04/09 11:08:28;;;;;;;1.48;1.23;;;;;;;;;;5460775;26;20010;-71
2024/04/09 11:10:55;;;;;;;1.75;1.65;;;;;;;;;;5482879;26;20445;-72
2024/04/09 11:13:22;;;;;;;1.92;1.50;;;;;;;;;;5443544;26;20013;-72
2024/04/09 11:15:48;;;;;;;1.65;1.50;;;;;;;;;;5448189;26;19998;-70
2024/04/09 11:18:24;;;;;;;1.50;1.50;;;;;;;;;;5477371;26;20513;-69
2024/04/09 11:20:58;;;;;;;2.47;1.85;;;;;;;;;;5455915;26;19998;-71
2024/04/09 11:23:25;;;;;;;2.10;1.58;;;;;;;;;;5480056;26;20005;-71
2024/04/09 11:25:52;;;;;;;4.15;1.60;;;;;;;;;;5448594;26;19998;-71
2024/04/09 11:28:21;;;;;;;5.00;1.90;;;;;;;;;;5474110;26;20694;-75
2024/04/09 11:30:51;;;;;;;1.70;1.60;;;;;;;;;;5481431;26;19994;-70
2024/04/09 11:33:17;;;;;;;2.25;2.05;;;;;;;;;;5488206;26;20472;-76
2024/04/09 11:35:45;;;;;;;4.57;1.88;;;;;;;;;;5473916;26;20742;-76
2024/04/09 11:38:12;;;;;;;1.83;1.65;;;;;;;;;;5489835;26;19997;-75
2024/04/09 11:40:38;;;;;;;2.75;1.63;;;;;;;;;;5472475;26;20435;-76
2024/04/09 11:43:05;;;;;;;2.45;1.70;;;;;;;;;;5473680;26;19998;-76
2024/04/09 11:45:35;;;;;;;1.50;1.40;;;;;;;;;;5439999;26;19998;-74
2024/04/09 11:48:05;;;;;;;1.60;1.50;;;;;;;;;;5438904;26;20508;-75
2024/04/09 11:50:32;;;;;;;8.95;3.00;;;;;;;;;;5441103;26;19995;-77
2024/04/09 11:52:58;;;;;;;1.95;1.67;;;;;;;;;;5466168;26;20426;-76
2024/04/09 11:55:24;;;;;;;4.63;1.92;;;;;;;;;;5472039;26;19991;-76
2024/04/09 11:57:51;;;;;;;2.20;1.90;;;;;;;;;;5458003;26;20002;-75
2024/04/09 12:00:17;;;;;;;13.77;2.90;;;;;;;;;;5477089;26;19993;-76
2024/04/09 12:02:44;;;;;;;2.30;1.80;;;;;;;;;;5474796;26;20019;-78
2024/04/09 12:05:13;;;;;;;1.85;1.73;;;;;;;;;;5475855;26;20155;-72
2024/04/09 12:07:42;;;;;;;7.93;2.30;;;;;;;;;;5482774;26;19998;-71
2024/04/09 12:10:09;;;;;;;4.97;1.98;;;;;;;;;;5486799;26;20473;-71
2024/04/09 12:12:35;;;;;;;3.42;1.90;;;;;;;;;;5491450;26;20002;-71
2024/04/09 12:15:03;;;;;;;4.53;2.25;;;;;;;;;;5486967;26;20368;-71
2024/04/09 12:17:33;;;;;;;3.30;2.28;;;;;;;;;;5477972;26;20008;-72
2024/04/09 12:20:00;;;;;;;15.93;4.20;;;;;;;;;;5494606;26;20377;-72
2024/04/09 12:22:26;;;;;;;12.43;3.47;;;;;;;;;;5483490;26;20005;-71
2024/04/09 12:24:52;;;;;;;12.95;4.03;;;;;;;;;;5471652;26;19998;-72
2024/04/09 12:27:18;;;;;;;13.13;5.78;;;;;;;;;;5474974;26;20006;-71
2024/04/09 12:29:45;;;;;;;7.63;6.18;;;;;;;;;;5469943;26;20013;-72
2024/04/09 12:32:12;;;;;;;3.28;2.72;;;;;;;;;;5475301;26;20067;-71
2024/04/09 12:34:39;;;;;;;3.40;2.70;;;;;;;;;;5476409;26;20002;-71
2024/04/09 12:37:05;;;;;;;2.88;2.58;;;;;;;;;;5478322;26;20013;-71
2024/04/09 12:39:32;;;;;;;4.20;3.10;;;;;;;;;;5478187;26;19994;-71
2024/04/09 12:41:58;;;;;;;5.05;3.10;;;;;;;;;;5473657;26;20010;-70
2024/04/09 12:44:25;;;;;;;6.18;2.83;;;;;;;;;;5447504;26;21603;-70
2024/04/09 12:46:51;;;;;;;5.55;3.13;;;;;;;;;;5471148;26;20002;-71
2024/04/09 12:49:22;;;;;;;2.85;2.58;;;;;;;;;;5470332;26;20491;-71
2024/04/09 12:51:48;;;;;;;2.55;2.20;;;;;;;;;;5480730;26;19998;-70
2024/04/09 12:54:14;;;;;;;3.22;2.55;;;;;;;;;;5466428;26;20341;-70
2024/04/09 12:56:41;;;;;;;7.97;2.47;;;;;;;;;;5441842;26;20512;-69
2024/04/09 12:59:07;;;;;;;3.83;2.60;;;;;;;;;;5473806;26;20010;-70
2024/04/09 13:01:34;;;;;;;4.20;3.72;;;;;;;;;;5471838;26;20013;-70
2024/04/09 13:04:00;;;;;;;18.67;12.30;;;;;;;;;;5438401;26;20489;-70
2024/04/09 13:06:26;;;;;;;12.65;6.95;;;;;;;;;;5439887;26;19999;-70
2024/04/09 13:08:53;;;;;;;11.75;8.45;;;;;;;;;;5466306;26;20503;-69
2024/04/09 13:11:19;;;;;;;13.20;7.35;;;;;;;;;;5472316;26;20006;-70
2024/04/09 13:13:45;;;;;;;4.72;2.65;;;;;;;;;;5452027;26;20008;-70
2024/04/09 13:16:14;;;;;;;5.47;2.28;;;;;;;;;;5472204;26;20002;-69
2024/04/09 13:18:40;;;;;;;2.20;1.52;;;;;;;;;;5473020;26;19999;-69
2024/04/09 13:21:07;;;;;;;2.50;1.70;;;;;;;;;;5475822;26;20003;-68
2024/04/09 13:23:33;;;;;;;1.92;1.60;;;;;;;;;;5475547;26;20037;-68
2024/04/09 13:26:00;;;;;;;2.63;1.85;;;;;;;;;;5464665;26;20374;-69
2024/04/09 13:28:26;;;;;;;2.00;1.80;;;;;;;;;;5445253;26;20005;-69
2024/04/09 13:30:52;;;;;;;3.58;2.10;;;;;;;;;;5479443;26;20002;-70
2024/04/09 13:33:19;;;;;;;5.28;2.10;;;;;;;;;;5476028;26;20016;-69
2024/04/09 13:35:45;;;;;;;5.30;2.30;;;;;;;;;;5467974;26;20006;-69
2024/04/09 13:38:11;;;;;;;4.82;2.33;;;;;;;;;;5464305;26;20500;-69
2024/04/09 13:40:37;;;;;;;4.30;2.08;;;;;;;;;;5474777;26;19994;-68
2024/04/09 13:43:03;;;;;;;2.90;1.73;;;;;;;;;;5469179;26;20051;-72
2024/04/09 13:45:30;;;;;;;4.63;1.77;;;;;;;;;;5442287;26;20553;-73
2024/04/09 13:47:56;;;;;;;2.40;1.80;;;;;;;;;;5449607;26;20014;-68
2024/04/09 13:50:22;;;;;;;1.85;1.75;;;;;;;;;;5458638;26;20036;-67
2024/04/09 13:52:49;;;;;;;2.58;1.83;;;;;;;;;;5467586;26;20607;-68
2024/04/09 13:55:15;;;;;;;4.40;1.80;;;;;;;;;;5440160;26;19998;-68
2024/04/09 13:57:42;;;;;;;3.28;1.80;;;;;;;;;;5472272;26;19994;-67
2024/04/09 14:00:08;;;;;;;3.50;1.50;;;;;;;;;;5470472;26;20334;-67
2024/04/09 14:02:34;;;;;;;2.92;1.50;;;;;;;;;;5470774;26;20058;-67
2024/04/09 14:05:01;;;;;;;2.75;1.63;;;;;;;;;;5464918;26;20402;-68
2024/04/09 14:07:28;;;;;;;1.73;1.13;;;;;;;;;;5437940;26;19994;-67
2024/04/09 14:09:55;;;;;;;2.35;1.45;;;;;;;;;;5429638;26;20002;-67
2024/04/09 14:12:22;;;;;;;1.55;1.08;;;;;;;;;;5468225;26;20459;-69
2024/04/09 14:14:48;;;;;;;2.40;1.80;;;;;;;;;;5472169;26;19994;-67
2024/04/09 14:17:14;;;;;;;2.35;1.73;;;;;;;;;;5468572;26;20061;-67
2024/04/09 14:19:40;;;;;;;2.10;1.60;;;;;;;;;;5446300;26;19998;-67
2024/04/09 14:22:08;;;;;;;2.13;1.67;;;;;;;;;;5469843;26;20333;-69
2024/04/09 14:24:36;;;;;;;3.40;2.20;;;;;;;;;;5466800;26;20464;-67
2024/04/09 14:27:02;;;;;;;2.10;1.80;;;;;;;;;;5463914;26;20004;-69
2024/04/09 14:29:29;;;;;;;2.08;1.70;;;;;;;;;;5467356;26;20011;-68
2024/04/09 14:31:55;;;;;;;1.73;1.40;;;;;;;;;;5459484;26;19994;-67
2024/04/09 14:34:21;;;;;;;3.13;1.48;;;;;;;;;;5461689;26;20561;-67
2024/04/09 14:36:48;;;;;;;1.42;1.20;;;;;;;;;;5434205;26;20014;-67
2024/04/09 14:39:14;;;;;;;3.20;1.77;;;;;;;;;;5465899;26;20352;-67
2024/04/09 14:41:40;;;;;;;1.70;1.60;;;;;;;;;;5467950;26;20029;-67